sensor_id;sensor_type;location;lat;lon;timestamp;P1;durP1;ratioP1;P2;durP2;ratioP2
48685;SDS011;34485;51.536;3.816;2023-04-01T00:01:29;29.77;;;4.90;;
48685;SDS011;34485;51.536;3.816;2023-04-01T00:03:55;37.03;;;5.37;;
48685;SDS011;34485;51.536;3.816;2023-04-01T00:06:21;33.57;;;5.40;;
48685;SDS011;34485;51.536;3.816;2023-04-01T00:08:47;29.50;;;5.90;;
48685;SDS011;34485;51.536;3.816;2023-04-01T00:11:13;31.83;;;5.60;;
48685;SDS011;34485;51.536;3.816;2023-04-01T00:13:39;35.67;;;5.65;;
48685;SDS011;34485;51.536;3.816;2023-04-01T00:16:06;23.27;;;4.38;;
48685;SDS011;34485;51.536;3.816;2023-04-01T00:18:32;36.90;;;7.05;;
48685;SDS011;34485;51.536;3.816;2023-04-01T00:20:57;27.03;;;5.30;;
48685;SDS011;34485;51.536;3.816;2023-04-01T00:23:23;28.75;;;5.90;;
48685;SDS011;34485;51.536;3.816;2023-04-01T00:25:48;31.53;;;6.67;;
48685;SDS011;34485;51.536;3.816;2023-04-01T00:28:15;18.30;;;5.43;;
48685;SDS011;34485;51.536;3.816;2023-04-01T00:30:42;22.55;;;6.47;;
48685;SDS011;34485;51.536;3.816;2023-04-01T00:33:08;28.50;;;5.83;;
48685;SDS011;34485;51.536;3.816;2023-04-01T00:35:33;31.57;;;6.87;;
48685;SDS011;34485;51.536;3.816;2023-04-01T00:38:00;33.28;;;7.05;;
48685;SDS011;34485;51.536;3.816;2023-04-01T00:42:53;42.57;;;5.77;;
48685;SDS011;34485;51.536;3.816;2023-04-01T00:45:38;20.40;;;5.95;;
48685;SDS011;34485;51.536;3.816;2023-04-01T00:48:07;30.60;;;6.07;;
48685;SDS011;34485;51.536;3.816;2023-04-01T00:50:36;22.40;;;5.63;;
48685;SDS011;34485;51.536;3.816;2023-04-01T00:53:04;17.13;;;5.05;;
48685;SDS011;34485;51.536;3.816;2023-04-01T00:55:32;18.97;;;4.53;;
48685;SDS011;34485;51.536;3.816;2023-04-01T00:58:00;16.20;;;5.38;;
48685;SDS011;34485;51.536;3.816;2023-04-01T01:00:30;10.10;;;4.43;;
48685;SDS011;34485;51.536;3.816;2023-04-01T01:02:56;14.25;;;4.38;;
48685;SDS011;34485;51.536;3.816;2023-04-01T01:05:25;8.30;;;3.80;;
48685;SDS011;34485;51.536;3.816;2023-04-01T01:08:07;10.35;;;4.20;;
48685;SDS011;34485;51.536;3.816;2023-04-01T01:10:56;12.00;;;4.57;;
48685;SDS011;34485;51.536;3.816;2023-04-01T01:15:58;9.75;;;4.05;;
48685;SDS011;34485;51.536;3.816;2023-04-01T01:18:39;7.57;;;3.90;;
48685;SDS011;34485;51.536;3.816;2023-04-01T01:24:12;6.38;;;4.13;;
48685;SDS011;34485;51.536;3.816;2023-04-01T01:37:59;4.68;;;3.42;;
48685;SDS011;34485;51.536;3.816;2023-04-01T01:40:31;12.43;;;4.43;;
48685;SDS011;34485;51.536;3.816;2023-04-01T01:42:59;10.10;;;5.90;;
48685;SDS011;34485;51.536;3.816;2023-04-01T01:45:28;19.30;;;5.00;;
48685;SDS011;34485;51.536;3.816;2023-04-01T01:47:59;11.85;;;4.70;;
48685;SDS011;34485;51.536;3.816;2023-04-01T01:50:26;9.10;;;4.40;;
48685;SDS011;34485;51.536;3.816;2023-04-01T01:53:02;16.77;;;5.57;;
48685;SDS011;34485;51.536;3.816;2023-04-01T01:55:37;13.85;;;6.88;;
48685;SDS011;34485;51.536;3.816;2023-04-01T01:58:09;15.95;;;6.75;;
48685;SDS011;34485;51.536;3.816;2023-04-01T02:01:06;13.70;;;6.40;;
48685;SDS011;34485;51.536;3.816;2023-04-01T02:03:41;17.80;;;6.75;;
48685;SDS011;34485;51.536;3.816;2023-04-01T02:06:09;19.97;;;6.70;;
48685;SDS011;34485;51.536;3.816;2023-04-01T02:08:42;17.13;;;6.93;;
48685;SDS011;34485;51.536;3.816;2023-04-01T02:11:18;18.20;;;6.88;;
48685;SDS011;34485;51.536;3.816;2023-04-01T02:14:04;12.77;;;5.90;;
48685;SDS011;34485;51.536;3.816;2023-04-01T02:19:22;13.33;;;7.07;;
48685;SDS011;34485;51.536;3.816;2023-04-01T02:21:55;22.00;;;6.63;;
48685;SDS011;34485;51.536;3.816;2023-04-01T02:24:25;20.13;;;7.47;;
48685;SDS011;34485;51.536;3.816;2023-04-01T02:26:53;20.58;;;7.50;;
48685;SDS011;34485;51.536;3.816;2023-04-01T02:29:19;32.00;;;8.67;;
48685;SDS011;34485;51.536;3.816;2023-04-01T02:31:46;18.08;;;7.20;;
48685;SDS011;34485;51.536;3.816;2023-04-01T02:34:14;20.90;;;7.63;;
48685;SDS011;34485;51.536;3.816;2023-04-01T02:36:40;24.15;;;6.57;;
48685;SDS011;34485;51.536;3.816;2023-04-01T02:39:06;20.93;;;6.73;;
48685;SDS011;34485;51.536;3.816;2023-04-01T02:41:38;13.13;;;6.47;;
48685;SDS011;34485;51.536;3.816;2023-04-01T02:44:08;9.23;;;4.55;;
48685;SDS011;34485;51.536;3.816;2023-04-01T02:46:35;11.18;;;4.60;;
48685;SDS011;34485;51.536;3.816;2023-04-01T02:49:01;11.93;;;4.97;;
48685;SDS011;34485;51.536;3.816;2023-04-01T02:51:28;18.75;;;5.10;;
48685;SDS011;34485;51.536;3.816;2023-04-01T02:53:54;13.25;;;5.43;;
48685;SDS011;34485;51.536;3.816;2023-04-01T02:56:20;6.90;;;5.22;;
48685;SDS011;34485;51.536;3.816;2023-04-01T02:58:46;17.00;;;6.57;;
48685;SDS011;34485;51.536;3.816;2023-04-01T03:01:12;18.05;;;6.18;;
48685;SDS011;34485;51.536;3.816;2023-04-01T03:03:38;10.80;;;6.55;;
48685;SDS011;34485;51.536;3.816;2023-04-01T03:06:05;20.75;;;8.68;;
48685;SDS011;34485;51.536;3.816;2023-04-01T03:08:35;14.90;;;5.37;;
48685;SDS011;34485;51.536;3.816;2023-04-01T03:11:01;11.30;;;6.25;;
48685;SDS011;34485;51.536;3.816;2023-04-01T03:13:26;14.83;;;5.53;;
48685;SDS011;34485;51.536;3.816;2023-04-01T03:15:52;22.88;;;8.45;;
48685;SDS011;34485;51.536;3.816;2023-04-01T03:18:18;18.60;;;5.97;;
48685;SDS011;34485;51.536;3.816;2023-04-01T03:20:44;17.20;;;6.68;;
48685;SDS011;34485;51.536;3.816;2023-04-01T03:23:10;9.20;;;5.72;;
48685;SDS011;34485;51.536;3.816;2023-04-01T03:25:36;12.73;;;5.07;;
48685;SDS011;34485;51.536;3.816;2023-04-01T03:28:02;21.63;;;6.00;;
48685;SDS011;34485;51.536;3.816;2023-04-01T03:30:27;18.73;;;5.85;;
48685;SDS011;34485;51.536;3.816;2023-04-01T03:32:55;18.90;;;5.70;;
48685;SDS011;34485;51.536;3.816;2023-04-01T03:35:21;16.93;;;5.87;;
48685;SDS011;34485;51.536;3.816;2023-04-01T03:37:46;14.10;;;5.35;;
48685;SDS011;34485;51.536;3.816;2023-04-01T03:40:12;12.37;;;4.97;;
48685;SDS011;34485;51.536;3.816;2023-04-01T03:42:38;10.38;;;5.05;;
48685;SDS011;34485;51.536;3.816;2023-04-01T03:45:04;15.43;;;4.90;;
48685;SDS011;34485;51.536;3.816;2023-04-01T03:47:30;16.42;;;4.43;;
48685;SDS011;34485;51.536;3.816;2023-04-01T03:49:56;15.43;;;4.47;;
48685;SDS011;34485;51.536;3.816;2023-04-01T03:52:21;14.90;;;3.50;;
48685;SDS011;34485;51.536;3.816;2023-04-01T03:54:47;8.82;;;3.60;;
48685;SDS011;34485;51.536;3.816;2023-04-01T03:57:13;6.73;;;3.50;;
48685;SDS011;34485;51.536;3.816;2023-04-01T03:59:38;7.40;;;3.27;;
48685;SDS011;34485;51.536;3.816;2023-04-01T04:02:04;6.63;;;3.22;;
48685;SDS011;34485;51.536;3.816;2023-04-01T04:04:30;6.80;;;3.70;;
48685;SDS011;34485;51.536;3.816;2023-04-01T04:06:57;7.20;;;3.83;;
48685;SDS011;34485;51.536;3.816;2023-04-01T04:09:22;14.70;;;3.00;;
48685;SDS011;34485;51.536;3.816;2023-04-01T04:11:48;7.23;;;4.57;;
48685;SDS011;34485;51.536;3.816;2023-04-01T04:14:14;5.82;;;3.25;;
48685;SDS011;34485;51.536;3.816;2023-04-01T04:16:40;9.23;;;3.55;;
48685;SDS011;34485;51.536;3.816;2023-04-01T04:19:06;6.87;;;3.00;;
48685;SDS011;34485;51.536;3.816;2023-04-01T04:21:32;11.85;;;4.03;;
48685;SDS011;34485;51.536;3.816;2023-04-01T04:24:00;5.30;;;3.07;;
48685;SDS011;34485;51.536;3.816;2023-04-01T04:26:27;12.18;;;3.83;;
48685;SDS011;34485;51.536;3.816;2023-04-01T04:28:53;7.50;;;3.05;;
48685;SDS011;34485;51.536;3.816;2023-04-01T04:31:21;7.70;;;2.80;;
48685;SDS011;34485;51.536;3.816;2023-04-01T04:33:48;10.27;;;2.50;;
48685;SDS011;34485;51.536;3.816;2023-04-01T04:36:15;9.35;;;2.92;;
48685;SDS011;34485;51.536;3.816;2023-04-01T04:38:40;6.10;;;3.00;;
48685;SDS011;34485;51.536;3.816;2023-04-01T04:41:09;4.67;;;2.43;;
48685;SDS011;34485;51.536;3.816;2023-04-01T04:43:36;7.60;;;2.83;;
48685;SDS011;34485;51.536;3.816;2023-04-01T04:46:09;6.70;;;2.87;;
48685;SDS011;34485;51.536;3.816;2023-04-01T04:48:35;9.37;;;3.37;;
48685;SDS011;34485;51.536;3.816;2023-04-01T04:51:01;5.70;;;3.08;;
48685;SDS011;34485;51.536;3.816;2023-04-01T04:53:27;12.45;;;3.08;;
48685;SDS011;34485;51.536;3.816;2023-04-01T04:55:53;9.17;;;2.83;;
48685;SDS011;34485;51.536;3.816;2023-04-01T04:58:18;5.65;;;3.28;;
48685;SDS011;34485;51.536;3.816;2023-04-01T05:00:44;6.27;;;3.20;;
48685;SDS011;34485;51.536;3.816;2023-04-01T05:03:10;7.57;;;2.87;;
48685;SDS011;34485;51.536;3.816;2023-04-01T05:05:37;13.50;;;3.90;;
48685;SDS011;34485;51.536;3.816;2023-04-01T05:08:03;8.38;;;3.40;;
48685;SDS011;34485;51.536;3.816;2023-04-01T05:10:28;13.65;;;3.05;;
48685;SDS011;34485;51.536;3.816;2023-04-01T05:12:55;13.80;;;2.80;;
48685;SDS011;34485;51.536;3.816;2023-04-01T05:15:21;7.80;;;2.90;;
48685;SDS011;34485;51.536;3.816;2023-04-01T05:17:47;8.82;;;3.22;;
48685;SDS011;34485;51.536;3.816;2023-04-01T05:20:12;3.20;;;2.90;;
48685;SDS011;34485;51.536;3.816;2023-04-01T05:22:39;10.02;;;2.95;;
48685;SDS011;34485;51.536;3.816;2023-04-01T05:25:05;6.85;;;2.50;;
48685;SDS011;34485;51.536;3.816;2023-04-01T05:27:31;6.33;;;2.33;;
48685;SDS011;34485;51.536;3.816;2023-04-01T05:29:57;4.90;;;2.28;;
48685;SDS011;34485;51.536;3.816;2023-04-01T05:32:23;4.18;;;2.90;;
48685;SDS011;34485;51.536;3.816;2023-04-01T05:34:52;7.93;;;4.00;;
48685;SDS011;34485;51.536;3.816;2023-04-01T05:37:18;6.32;;;3.60;;
48685;SDS011;34485;51.536;3.816;2023-04-01T05:39:44;6.18;;;3.55;;
48685;SDS011;34485;51.536;3.816;2023-04-01T05:42:10;7.70;;;4.60;;
48685;SDS011;34485;51.536;3.816;2023-04-01T05:44:36;11.73;;;5.20;;
48685;SDS011;34485;51.536;3.816;2023-04-01T05:47:02;15.00;;;5.90;;
48685;SDS011;34485;51.536;3.816;2023-04-01T05:49:28;16.50;;;5.95;;
48685;SDS011;34485;51.536;3.816;2023-04-01T05:51:54;17.40;;;5.93;;
48685;SDS011;34485;51.536;3.816;2023-04-01T05:54:20;19.00;;;5.13;;
48685;SDS011;34485;51.536;3.816;2023-04-01T05:56:46;13.00;;;5.70;;
48685;SDS011;34485;51.536;3.816;2023-04-01T05:59:12;13.27;;;5.03;;
48685;SDS011;34485;51.536;3.816;2023-04-01T06:01:37;10.15;;;4.53;;
48685;SDS011;34485;51.536;3.816;2023-04-01T06:04:03;22.73;;;5.47;;
48685;SDS011;34485;51.536;3.816;2023-04-01T06:06:30;10.20;;;5.37;;
48685;SDS011;34485;51.536;3.816;2023-04-01T06:08:58;13.02;;;6.15;;
48685;SDS011;34485;51.536;3.816;2023-04-01T06:19:23;10.70;;;5.83;;
48685;SDS011;34485;51.536;3.816;2023-04-01T06:22:02;9.35;;;4.55;;
48685;SDS011;34485;51.536;3.816;2023-04-01T06:33:02;12.55;;;4.70;;
48685;SDS011;34485;51.536;3.816;2023-04-01T06:44:08;8.13;;;4.72;;
48685;SDS011;34485;51.536;3.816;2023-04-01T06:52:26;8.07;;;4.43;;
48685;SDS011;34485;51.536;3.816;2023-04-01T06:55:20;12.10;;;4.90;;
48685;SDS011;34485;51.536;3.816;2023-04-01T06:57:53;18.17;;;5.93;;
48685;SDS011;34485;51.536;3.816;2023-04-01T07:00:43;17.15;;;6.05;;
48685;SDS011;34485;51.536;3.816;2023-04-01T07:05:41;8.53;;;3.43;;
48685;SDS011;34485;51.536;3.816;2023-04-01T07:08:16;12.50;;;4.32;;
48685;SDS011;34485;51.536;3.816;2023-04-01T07:18:44;9.33;;;3.97;;
48685;SDS011;34485;51.536;3.816;2023-04-01T07:24:21;9.52;;;5.30;;
48685;SDS011;34485;51.536;3.816;2023-04-01T07:26:56;14.30;;;5.03;;
48685;SDS011;34485;51.536;3.816;2023-04-01T07:29:22;11.40;;;5.07;;
48685;SDS011;34485;51.536;3.816;2023-04-01T07:37:30;10.10;;;5.10;;
48685;SDS011;34485;51.536;3.816;2023-04-01T07:51:51;10.15;;;4.25;;
48685;SDS011;34485;51.536;3.816;2023-04-01T08:00:18;5.97;;;3.23;;
48685;SDS011;34485;51.536;3.816;2023-04-01T08:05:26;7.93;;;3.13;;
48685;SDS011;34485;51.536;3.816;2023-04-01T08:13:39;6.63;;;2.67;;
48685;SDS011;34485;51.536;3.816;2023-04-01T08:19:06;5.05;;;2.70;;
48685;SDS011;34485;51.536;3.816;2023-04-01T08:21:43;8.48;;;2.47;;
48685;SDS011;34485;51.536;3.816;2023-04-01T08:24:25;2.50;;;2.30;;
48685;SDS011;34485;51.536;3.816;2023-04-01T08:27:31;5.33;;;2.50;;
48685;SDS011;34485;51.536;3.816;2023-04-01T08:30:01;11.80;;;3.05;;
48685;SDS011;34485;51.536;3.816;2023-04-01T08:32:49;8.85;;;3.30;;
48685;SDS011;34485;51.536;3.816;2023-04-01T08:35:27;18.15;;;3.03;;
48685;SDS011;34485;51.536;3.816;2023-04-01T08:38:06;5.88;;;2.53;;
48685;SDS011;34485;51.536;3.816;2023-04-01T08:40:50;7.17;;;3.10;;
48685;SDS011;34485;51.536;3.816;2023-04-01T08:43:29;10.35;;;3.20;;
48685;SDS011;34485;51.536;3.816;2023-04-01T08:51:58;13.40;;;3.47;;
48685;SDS011;34485;51.536;3.816;2023-04-01T09:14:35;6.72;;;3.17;;
48685;SDS011;34485;51.536;3.816;2023-04-01T09:17:09;5.93;;;4.25;;
48685;SDS011;34485;51.536;3.816;2023-04-01T09:22:50;15.37;;;3.47;;
48685;SDS011;34485;51.536;3.816;2023-04-01T09:25:36;7.65;;;3.53;;
48685;SDS011;34485;51.536;3.816;2023-04-01T09:39:25;8.82;;;2.53;;
48685;SDS011;34485;51.536;3.816;2023-04-01T09:42:15;3.10;;;2.83;;
48685;SDS011;34485;51.536;3.816;2023-04-01T09:50:56;8.00;;;2.63;;
48685;SDS011;34485;51.536;3.816;2023-04-01T09:53:36;6.63;;;2.63;;
48685;SDS011;34485;51.536;3.816;2023-04-01T09:56:41;3.65;;;2.20;;
48685;SDS011;34485;51.536;3.816;2023-04-01T10:05:25;2.60;;;2.00;;
48685;SDS011;34485;51.536;3.816;2023-04-01T10:08:14;4.53;;;1.92;;
48685;SDS011;34485;51.536;3.816;2023-04-01T10:27:50;2.17;;;1.80;;
48685;SDS011;34485;51.536;3.816;2023-04-01T10:47:58;4.27;;;2.17;;
48685;SDS011;34485;51.536;3.816;2023-04-01T10:50:45;5.75;;;2.22;;
48685;SDS011;34485;51.536;3.816;2023-04-01T11:48:51;4.50;;;2.08;;
48685;SDS011;34485;51.536;3.816;2023-04-01T11:54:19;3.97;;;1.80;;
48685;SDS011;34485;51.536;3.816;2023-04-01T12:00:20;5.85;;;2.00;;
48685;SDS011;34485;51.536;3.816;2023-04-01T12:03:10;3.03;;;2.13;;
48685;SDS011;34485;51.536;3.816;2023-04-01T12:06:08;7.15;;;2.22;;
48685;SDS011;34485;51.536;3.816;2023-04-01T12:08:59;3.70;;;1.92;;
48685;SDS011;34485;51.536;3.816;2023-04-01T12:23:02;3.53;;;2.00;;
48685;SDS011;34485;51.536;3.816;2023-04-01T12:31:25;3.50;;;2.15;;
48685;SDS011;34485;51.536;3.816;2023-04-01T12:39:21;3.10;;;1.90;;
48685;SDS011;34485;51.536;3.816;2023-04-01T12:42:16;3.47;;;1.85;;
48685;SDS011;34485;51.536;3.816;2023-04-01T12:45:11;4.65;;;2.13;;
48685;SDS011;34485;51.536;3.816;2023-04-01T12:50:50;5.47;;;2.17;;
48685;SDS011;34485;51.536;3.816;2023-04-01T12:53:41;3.50;;;1.90;;
48685;SDS011;34485;51.536;3.816;2023-04-01T12:56:14;2.70;;;2.10;;
48685;SDS011;34485;51.536;3.816;2023-04-01T13:01:48;5.35;;;2.13;;
48685;SDS011;34485;51.536;3.816;2023-04-01T13:07:16;3.50;;;2.30;;
48685;SDS011;34485;51.536;3.816;2023-04-01T13:10:03;2.58;;;1.50;;
48685;SDS011;34485;51.536;3.816;2023-04-01T13:26:19;3.17;;;2.58;;
48685;SDS011;34485;51.536;3.816;2023-04-01T13:31:41;3.10;;;2.38;;
48685;SDS011;34485;51.536;3.816;2023-04-01T13:42:53;6.75;;;2.20;;
48685;SDS011;34485;51.536;3.816;2023-04-01T13:45:26;2.25;;;2.00;;
48685;SDS011;34485;51.536;3.816;2023-04-01T14:04:53;4.00;;;2.17;;
48685;SDS011;34485;51.536;3.816;2023-04-01T14:08:09;4.80;;;1.88;;
48685;SDS011;34485;51.536;3.816;2023-04-01T14:11:33;4.85;;;1.70;;
48685;SDS011;34485;51.536;3.816;2023-04-01T14:17:04;2.87;;;1.60;;
48685;SDS011;34485;51.536;3.816;2023-04-01T14:19:31;6.63;;;1.80;;
48685;SDS011;34485;51.536;3.816;2023-04-01T14:28:09;2.25;;;1.83;;
48685;SDS011;34485;51.536;3.816;2023-04-01T14:31:23;11.20;;;3.03;;
48685;SDS011;34485;51.536;3.816;2023-04-01T14:36:43;3.35;;;2.85;;
48685;SDS011;34485;51.536;3.816;2023-04-01T14:50:46;3.17;;;2.90;;
48685;SDS011;34485;51.536;3.816;2023-04-01T14:55:52;7.63;;;3.95;;
48685;SDS011;34485;51.536;3.816;2023-04-01T14:58:26;5.95;;;3.33;;
48685;SDS011;34485;51.536;3.816;2023-04-01T15:18:53;20.70;;;7.53;;
48685;SDS011;34485;51.536;3.816;2023-04-01T15:29:42;9.82;;;4.72;;
48685;SDS011;34485;51.536;3.816;2023-04-01T15:35:24;4.00;;;2.80;;
48685;SDS011;34485;51.536;3.816;2023-04-01T15:43:40;7.35;;;3.20;;
48685;SDS011;34485;51.536;3.816;2023-04-01T15:51:11;6.20;;;3.15;;
48685;SDS011;34485;51.536;3.816;2023-04-01T16:10:43;7.40;;;4.03;;
48685;SDS011;34485;51.536;3.816;2023-04-01T16:13:28;12.55;;;4.75;;
48685;SDS011;34485;51.536;3.816;2023-04-01T16:16:07;9.73;;;3.27;;
48685;SDS011;34485;51.536;3.816;2023-04-01T16:33:47;15.07;;;3.97;;
48685;SDS011;34485;51.536;3.816;2023-04-01T16:38:54;9.38;;;3.90;;
48685;SDS011;34485;51.536;3.816;2023-04-01T16:41:31;18.83;;;4.68;;
48685;SDS011;34485;51.536;3.816;2023-04-01T16:44:12;14.27;;;5.33;;
48685;SDS011;34485;51.536;3.816;2023-04-01T16:46:45;16.70;;;5.72;;
48685;SDS011;34485;51.536;3.816;2023-04-01T16:54:39;19.73;;;5.60;;
48685;SDS011;34485;51.536;3.816;2023-04-01T17:04:34;28.35;;;5.88;;
48685;SDS011;34485;51.536;3.816;2023-04-01T17:07:26;21.70;;;5.55;;
48685;SDS011;34485;51.536;3.816;2023-04-01T17:12:46;23.77;;;5.22;;
48685;SDS011;34485;51.536;3.816;2023-04-01T17:15:24;12.40;;;3.73;;
48685;SDS011;34485;51.536;3.816;2023-04-01T17:18:11;31.52;;;6.03;;
48685;SDS011;34485;51.536;3.816;2023-04-01T17:21:07;21.48;;;5.25;;
48685;SDS011;34485;51.536;3.816;2023-04-01T17:23:51;23.08;;;4.95;;
48685;SDS011;34485;51.536;3.816;2023-04-01T17:26:39;38.60;;;7.07;;
48685;SDS011;34485;51.536;3.816;2023-04-01T17:29:31;27.37;;;6.10;;
48685;SDS011;34485;51.536;3.816;2023-04-01T17:32:27;20.33;;;4.20;;
48685;SDS011;34485;51.536;3.816;2023-04-01T17:52:21;16.45;;;3.83;;
48685;SDS011;34485;51.536;3.816;2023-04-01T17:57:51;10.50;;;3.30;;
48685;SDS011;34485;51.536;3.816;2023-04-01T18:00:47;21.13;;;3.78;;
48685;SDS011;34485;51.536;3.816;2023-04-01T18:11:56;19.60;;;3.73;;
48685;SDS011;34485;51.536;3.816;2023-04-01T18:27:37;25.20;;;5.07;;
48685;SDS011;34485;51.536;3.816;2023-04-01T18:33:06;16.13;;;4.32;;
48685;SDS011;34485;51.536;3.816;2023-04-01T18:35:53;23.08;;;5.00;;
48685;SDS011;34485;51.536;3.816;2023-04-01T18:38:37;23.23;;;4.37;;
48685;SDS011;34485;51.536;3.816;2023-04-01T18:46:30;14.10;;;4.45;;
48685;SDS011;34485;51.536;3.816;2023-04-01T18:51:39;22.90;;;6.07;;
48685;SDS011;34485;51.536;3.816;2023-04-01T18:54:19;18.38;;;5.07;;
48685;SDS011;34485;51.536;3.816;2023-04-01T18:57:01;25.10;;;5.40;;
48685;SDS011;34485;51.536;3.816;2023-04-01T18:59:35;33.40;;;4.85;;
48685;SDS011;34485;51.536;3.816;2023-04-01T19:07:41;23.73;;;4.60;;
48685;SDS011;34485;51.536;3.816;2023-04-01T19:10:22;23.33;;;5.55;;
48685;SDS011;34485;51.536;3.816;2023-04-01T19:15:39;17.33;;;5.25;;
48685;SDS011;34485;51.536;3.816;2023-04-01T19:18:35;24.83;;;5.23;;
48685;SDS011;34485;51.536;3.816;2023-04-01T19:32:23;32.30;;;8.77;;
48685;SDS011;34485;51.536;3.816;2023-04-01T19:34:58;33.53;;;7.57;;
48685;SDS011;34485;51.536;3.816;2023-04-01T19:43:11;31.92;;;6.88;;
48685;SDS011;34485;51.536;3.816;2023-04-01T19:45:46;25.40;;;6.23;;
48685;SDS011;34485;51.536;3.816;2023-04-01T19:53:58;20.33;;;6.47;;
48685;SDS011;34485;51.536;3.816;2023-04-01T19:56:57;22.13;;;6.68;;
48685;SDS011;34485;51.536;3.816;2023-04-01T20:04:29;16.42;;;6.63;;
48685;SDS011;34485;51.536;3.816;2023-04-01T20:07:01;16.90;;;6.90;;
48685;SDS011;34485;51.536;3.816;2023-04-01T20:09:53;23.13;;;7.40;;
48685;SDS011;34485;51.536;3.816;2023-04-01T20:14:54;27.00;;;9.40;;
48685;SDS011;34485;51.536;3.816;2023-04-01T20:25:15;26.43;;;7.67;;
48685;SDS011;34485;51.536;3.816;2023-04-01T20:44:49;24.50;;;7.72;;
48685;SDS011;34485;51.536;3.816;2023-04-01T20:55:47;21.70;;;7.95;;
48685;SDS011;34485;51.536;3.816;2023-04-01T21:09:11;15.00;;;6.72;;
48685;SDS011;34485;51.536;3.816;2023-04-01T21:14:59;19.67;;;6.40;;
48685;SDS011;34485;51.536;3.816;2023-04-01T21:17:58;20.45;;;9.15;;
48685;SDS011;34485;51.536;3.816;2023-04-01T21:24:23;22.50;;;7.38;;
48685;SDS011;34485;51.536;3.816;2023-04-01T21:27:10;18.40;;;7.72;;
48685;SDS011;34485;51.536;3.816;2023-04-01T21:37:44;20.38;;;9.70;;
48685;SDS011;34485;51.536;3.816;2023-04-01T21:51:26;18.38;;;9.48;;
48685;SDS011;34485;51.536;3.816;2023-04-01T22:05:27;29.33;;;14.97;;
48685;SDS011;34485;51.536;3.816;2023-04-01T22:13:18;33.83;;;19.30;;
48685;SDS011;34485;51.536;3.816;2023-04-01T22:16:09;28.17;;;16.88;;
48685;SDS011;34485;51.536;3.816;2023-04-01T22:19:14;31.83;;;18.13;;
48685;SDS011;34485;51.536;3.816;2023-04-01T22:32:54;26.67;;;15.90;;
48685;SDS011;34485;51.536;3.816;2023-04-01T22:35:33;23.33;;;14.32;;
48685;SDS011;34485;51.536;3.816;2023-04-01T22:40:48;19.63;;;12.33;;
48685;SDS011;34485;51.536;3.816;2023-04-01T22:43:32;16.38;;;11.48;;
48685;SDS011;34485;51.536;3.816;2023-04-01T22:48:44;16.50;;;10.27;;
48685;SDS011;34485;51.536;3.816;2023-04-01T22:56:21;14.07;;;11.55;;
48685;SDS011;34485;51.536;3.816;2023-04-01T23:02:41;17.08;;;11.93;;
48685;SDS011;34485;51.536;3.816;2023-04-01T23:05:03;18.10;;;12.53;;
48685;SDS011;34485;51.536;3.816;2023-04-01T23:07:37;19.25;;;11.70;;
48685;SDS011;34485;51.536;3.816;2023-04-01T23:10:22;17.05;;;10.80;;
48685;SDS011;34485;51.536;3.816;2023-04-01T23:12:53;16.65;;;12.05;;
48685;SDS011;34485;51.536;3.816;2023-04-01T23:15:23;21.15;;;12.40;;
48685;SDS011;34485;51.536;3.816;2023-04-01T23:17:55;18.13;;;12.47;;
48685;SDS011;34485;51.536;3.816;2023-04-01T23:23:30;19.42;;;11.32;;
48685;SDS011;34485;51.536;3.816;2023-04-01T23:26:10;18.85;;;10.82;;
48685;SDS011;34485;51.536;3.816;2023-04-01T23:28:50;24.23;;;11.98;;
48685;SDS011;34485;51.536;3.816;2023-04-01T23:31:40;17.43;;;12.60;;
48685;SDS011;34485;51.536;3.816;2023-04-01T23:34:22;22.27;;;14.23;;
48685;SDS011;34485;51.536;3.816;2023-04-01T23:36:53;22.60;;;13.70;;
48685;SDS011;34485;51.536;3.816;2023-04-01T23:39:35;17.90;;;13.93;;
48685;SDS011;34485;51.536;3.816;2023-04-01T23:44:39;23.13;;;13.03;;
48685;SDS011;34485;51.536;3.816;2023-04-01T23:47:06;19.88;;;12.45;;
48685;SDS011;34485;51.536;3.816;2023-04-01T23:49:38;18.15;;;13.70;;
48685;SDS011;34485;51.536;3.816;2023-04-01T23:52:19;16.55;;;12.70;;
48685;SDS011;34485;51.536;3.816;2023-04-01T23:57:27;19.83;;;11.63;;
48685;SDS011;34485;51.536;3.816;2023-04-01T23:59:59;20.73;;;11.68;;
